sensor_id;sensor_type;location;lat;lon;timestamp;temperature;humidity
65378;SHT31;51982;51.042;13.806;2023-01-24T00:00:23;5.90;83.40
65378;SHT31;51982;51.042;13.806;2023-01-24T00:02:48;5.93;83.32
65378;SHT31;51982;51.042;13.806;2023-01-24T00:05:13;5.98;83.19
65378;SHT31;51982;51.042;13.806;2023-01-24T00:07:39;5.95;83.08
65378;SHT31;51982;51.042;13.806;2023-01-24T00:10:04;5.89;83.18
65378;SHT31;51982;51.042;13.806;2023-01-24T00:12:30;5.94;83.51
65378;SHT31;51982;51.042;13.806;2023-01-24T00:14:55;5.93;83.34
65378;SHT31;51982;51.042;13.806;2023-01-24T00:17:23;5.93;82.96
65378;SHT31;51982;51.042;13.806;2023-01-24T00:19:49;6.04;83.16
65378;SHT31;51982;51.042;13.806;2023-01-24T00:22:14;6.18;82.70
65378;SHT31;51982;51.042;13.806;2023-01-24T00:24:39;6.25;82.53
65378;SHT31;51982;51.042;13.806;2023-01-24T00:27:05;6.24;82.36
65378;SHT31;51982;51.042;13.806;2023-01-24T00:29:30;6.12;82.32
65378;SHT31;51982;51.042;13.806;2023-01-24T00:31:55;6.00;82.71
65378;SHT31;51982;51.042;13.806;2023-01-24T00:34:20;6.07;82.85
65378;SHT31;51982;51.042;13.806;2023-01-24T00:36:46;5.98;82.82
65378;SHT31;51982;51.042;13.806;2023-01-24T00:39:11;6.00;82.84
65378;SHT31;51982;51.042;13.806;2023-01-24T00:41:36;5.91;82.88
65378;SHT31;51982;51.042;13.806;2023-01-24T00:44:01;5.95;82.93
65378;SHT31;51982;51.042;13.806;2023-01-24T00:46:27;6.07;82.93
65378;SHT31;51982;51.042;13.806;2023-01-24T00:48:52;5.98;82.62
65378;SHT31;51982;51.042;13.806;2023-01-24T00:51:17;6.07;82.68
65378;SHT31;51982;51.042;13.806;2023-01-24T00:53:42;6.12;82.43
65378;SHT31;51982;51.042;13.806;2023-01-24T00:56:08;6.00;82.43
65378;SHT31;51982;51.042;13.806;2023-01-24T00:58:33;5.94;82.69
65378;SHT31;51982;51.042;13.806;2023-01-24T01:00:59;5.95;82.88
65378;SHT31;51982;51.042;13.806;2023-01-24T01:03:27;6.01;82.68
65378;SHT31;51982;51.042;13.806;2023-01-24T01:06:09;5.98;82.54
65378;SHT31;51982;51.042;13.806;2023-01-24T01:08:34;5.97;82.76
65378;SHT31;51982;51.042;13.806;2023-01-24T01:10:59;5.86;82.99
65378;SHT31;51982;51.042;13.806;2023-01-24T01:13:26;5.89;83.03
65378;SHT31;51982;51.042;13.806;2023-01-24T01:15:51;5.90;82.91
65378;SHT31;51982;51.042;13.806;2023-01-24T01:18:17;5.87;82.99
65378;SHT31;51982;51.042;13.806;2023-01-24T01:20:48;5.77;83.17
65378;SHT31;51982;51.042;13.806;2023-01-24T01:23:14;5.77;83.30
65378;SHT31;51982;51.042;13.806;2023-01-24T01:25:39;5.83;83.18
65378;SHT31;51982;51.042;13.806;2023-01-24T01:28:04;5.86;83.22
65378;SHT31;51982;51.042;13.806;2023-01-24T01:30:29;5.91;83.02
65378;SHT31;51982;51.042;13.806;2023-01-24T01:32:55;5.83;83.07
65378;SHT31;51982;51.042;13.806;2023-01-24T01:35:20;5.80;83.13
65378;SHT31;51982;51.042;13.806;2023-01-24T01:37:45;5.83;83.03
65378;SHT31;51982;51.042;13.806;2023-01-24T01:40:11;5.87;82.89
65378;SHT31;51982;51.042;13.806;2023-01-24T01:42:47;5.89;82.80
65378;SHT31;51982;51.042;13.806;2023-01-24T01:45:32;5.91;82.59
65378;SHT31;51982;51.042;13.806;2023-01-24T01:47:59;5.91;82.56
65378;SHT31;51982;51.042;13.806;2023-01-24T01:50:30;5.87;82.61
65378;SHT31;51982;51.042;13.806;2023-01-24T01:52:56;5.80;82.84
65378;SHT31;51982;51.042;13.806;2023-01-24T01:55:25;5.74;83.04
65378;SHT31;51982;51.042;13.806;2023-01-24T01:57:52;5.87;82.96
65378;SHT31;51982;51.042;13.806;2023-01-24T02:00:20;5.80;83.00
65378;SHT31;51982;51.042;13.806;2023-01-24T02:02:48;5.80;82.92
65378;SHT31;51982;51.042;13.806;2023-01-24T02:05:18;5.81;82.88
65378;SHT31;51982;51.042;13.806;2023-01-24T02:07:54;5.83;82.68
65378;SHT31;51982;51.042;13.806;2023-01-24T02:10:23;5.97;82.70
65378;SHT31;51982;51.042;13.806;2023-01-24T02:12:53;6.07;82.43
65378;SHT31;51982;51.042;13.806;2023-01-24T02:15:20;6.01;82.44
65378;SHT31;51982;51.042;13.806;2023-01-24T02:18:12;6.14;82.33
65378;SHT31;51982;51.042;13.806;2023-01-24T02:20:40;6.17;82.28
65378;SHT31;51982;51.042;13.806;2023-01-24T02:25:50;6.25;81.99
65378;SHT31;51982;51.042;13.806;2023-01-24T02:28:16;6.31;81.88
65378;SHT31;51982;51.042;13.806;2023-01-24T02:30:41;6.31;81.56
65378;SHT31;51982;51.042;13.806;2023-01-24T02:33:14;6.20;81.78
65378;SHT31;51982;51.042;13.806;2023-01-24T02:35:40;6.08;81.90
65378;SHT31;51982;51.042;13.806;2023-01-24T02:38:13;6.12;82.13
65378;SHT31;51982;51.042;13.806;2023-01-24T02:40:39;6.14;82.08
65378;SHT31;51982;51.042;13.806;2023-01-24T02:43:06;6.07;82.02
65378;SHT31;51982;51.042;13.806;2023-01-24T02:45:33;5.95;82.22
65378;SHT31;51982;51.042;13.806;2023-01-24T02:47:59;5.98;82.46
65378;SHT31;51982;51.042;13.806;2023-01-24T02:50:27;5.97;82.37
65378;SHT31;51982;51.042;13.806;2023-01-24T02:52:53;6.00;82.50
65378;SHT31;51982;51.042;13.806;2023-01-24T02:55:37;5.84;82.64
65378;SHT31;51982;51.042;13.806;2023-01-24T02:58:23;5.80;82.72
65378;SHT31;51982;51.042;13.806;2023-01-24T03:00:49;5.86;82.76
65378;SHT31;51982;51.042;13.806;2023-01-24T03:03:15;5.87;82.70
65378;SHT31;51982;51.042;13.806;2023-01-24T03:05:40;5.87;82.56
65378;SHT31;51982;51.042;13.806;2023-01-24T03:08:21;5.80;82.69
65378;SHT31;51982;51.042;13.806;2023-01-24T03:10:46;5.78;82.74
65378;SHT31;51982;51.042;13.806;2023-01-24T03:13:12;5.75;82.87
65378;SHT31;51982;51.042;13.806;2023-01-24T03:15:58;5.67;82.77
65378;SHT31;51982;51.042;13.806;2023-01-24T03:18:42;5.77;82.84
65378;SHT31;51982;51.042;13.806;2023-01-24T03:21:26;5.77;82.66
65378;SHT31;51982;51.042;13.806;2023-01-24T03:24:10;5.73;82.63
65378;SHT31;51982;51.042;13.806;2023-01-24T03:26:54;5.77;82.68
65378;SHT31;51982;51.042;13.806;2023-01-24T03:29:38;5.80;82.53
65378;SHT31;51982;51.042;13.806;2023-01-24T03:32:22;5.87;82.46
65378;SHT31;51982;51.042;13.806;2023-01-24T03:35:06;5.87;82.27
65378;SHT31;51982;51.042;13.806;2023-01-24T03:37:31;5.86;82.26
65378;SHT31;51982;51.042;13.806;2023-01-24T03:40:16;5.83;82.33
65378;SHT31;51982;51.042;13.806;2023-01-24T03:42:41;5.89;82.33
65378;SHT31;51982;51.042;13.806;2023-01-24T03:45:25;5.83;82.14
65378;SHT31;51982;51.042;13.806;2023-01-24T03:47:56;5.77;82.19
65378;SHT31;51982;51.042;13.806;2023-01-24T03:53:17;5.78;82.39
65378;SHT31;51982;51.042;13.806;2023-01-24T03:55:43;5.73;82.39
65378;SHT31;51982;51.042;13.806;2023-01-24T03:58:09;5.75;82.29
65378;SHT31;51982;51.042;13.806;2023-01-24T04:00:35;5.80;82.25
65378;SHT31;51982;51.042;13.806;2023-01-24T04:03:01;5.83;82.18
65378;SHT31;51982;51.042;13.806;2023-01-24T04:05:27;5.69;82.30
65378;SHT31;51982;51.042;13.806;2023-01-24T04:07:53;5.77;82.17
65378;SHT31;51982;51.042;13.806;2023-01-24T04:10:19;5.84;82.11
65378;SHT31;51982;51.042;13.806;2023-01-24T04:12:44;5.87;82.16
65378;SHT31;51982;51.042;13.806;2023-01-24T04:15:18;5.94;81.89
65378;SHT31;51982;51.042;13.806;2023-01-24T04:17:44;5.81;82.10
65378;SHT31;51982;51.042;13.806;2023-01-24T04:20:09;5.84;82.14
65378;SHT31;51982;51.042;13.806;2023-01-24T04:22:35;5.83;82.32
65378;SHT31;51982;51.042;13.806;2023-01-24T04:25:00;5.73;82.34
65378;SHT31;51982;51.042;13.806;2023-01-24T04:27:25;5.71;82.47
65378;SHT31;51982;51.042;13.806;2023-01-24T04:29:50;5.66;82.20
65378;SHT31;51982;51.042;13.806;2023-01-24T04:32:15;5.71;82.30
65378;SHT31;51982;51.042;13.806;2023-01-24T04:34:41;5.70;82.31
65378;SHT31;51982;51.042;13.806;2023-01-24T04:37:06;5.77;82.23
65378;SHT31;51982;51.042;13.806;2023-01-24T04:39:31;5.74;82.30
65378;SHT31;51982;51.042;13.806;2023-01-24T04:41:56;5.78;82.31
65378;SHT31;51982;51.042;13.806;2023-01-24T04:44:22;5.78;82.31
65378;SHT31;51982;51.042;13.806;2023-01-24T04:46:47;5.90;82.35
65378;SHT31;51982;51.042;13.806;2023-01-24T04:49:12;5.83;82.18
65378;SHT31;51982;51.042;13.806;2023-01-24T04:51:37;5.77;82.12
65378;SHT31;51982;51.042;13.806;2023-01-24T04:54:07;5.71;82.33
65378;SHT31;51982;51.042;13.806;2023-01-24T04:56:32;5.61;82.36
65378;SHT31;51982;51.042;13.806;2023-01-24T04:58:57;5.63;82.75
65378;SHT31;51982;51.042;13.806;2023-01-24T05:01:23;5.69;82.58
65378;SHT31;51982;51.042;13.806;2023-01-24T05:03:48;5.73;82.40
65378;SHT31;51982;51.042;13.806;2023-01-24T05:06:13;5.75;82.47
65378;SHT31;51982;51.042;13.806;2023-01-24T05:08:38;5.83;82.39
65378;SHT31;51982;51.042;13.806;2023-01-24T05:11:04;5.84;82.45
65378;SHT31;51982;51.042;13.806;2023-01-24T05:13:29;5.93;82.37
65378;SHT31;51982;51.042;13.806;2023-01-24T05:15:57;5.81;82.32
65378;SHT31;51982;51.042;13.806;2023-01-24T05:18:22;5.80;82.49
65378;SHT31;51982;51.042;13.806;2023-01-24T05:20:47;5.69;82.92
65378;SHT31;51982;51.042;13.806;2023-01-24T05:23:12;5.66;83.13
65378;SHT31;51982;51.042;13.806;2023-01-24T05:25:40;5.53;83.35
65378;SHT31;51982;51.042;13.806;2023-01-24T05:28:05;5.61;83.34
65378;SHT31;51982;51.042;13.806;2023-01-24T05:30:30;5.60;83.32
65378;SHT31;51982;51.042;13.806;2023-01-24T05:32:57;5.59;83.30
65378;SHT31;51982;51.042;13.806;2023-01-24T05:35:22;5.59;83.31
65378;SHT31;51982;51.042;13.806;2023-01-24T05:37:48;5.59;83.31
65378;SHT31;51982;51.042;13.806;2023-01-24T05:40:13;5.63;83.19
65378;SHT31;51982;51.042;13.806;2023-01-24T05:42:42;5.73;83.02
65378;SHT31;51982;51.042;13.806;2023-01-24T05:45:08;5.80;82.87
65378;SHT31;51982;51.042;13.806;2023-01-24T05:47:33;5.86;82.63
65378;SHT31;51982;51.042;13.806;2023-01-24T05:49:58;5.87;82.20
65378;SHT31;51982;51.042;13.806;2023-01-24T05:52:24;5.86;82.43
65378;SHT31;51982;51.042;13.806;2023-01-24T05:54:49;5.81;82.46
65378;SHT31;51982;51.042;13.806;2023-01-24T05:57:15;5.83;82.59
65378;SHT31;51982;51.042;13.806;2023-01-24T05:59:41;5.86;82.56
65378;SHT31;51982;51.042;13.806;2023-01-24T06:02:06;5.75;82.64
65378;SHT31;51982;51.042;13.806;2023-01-24T06:04:31;5.73;82.61
65378;SHT31;51982;51.042;13.806;2023-01-24T06:06:57;5.75;82.67
65378;SHT31;51982;51.042;13.806;2023-01-24T06:09:22;5.74;82.66
65378;SHT31;51982;51.042;13.806;2023-01-24T06:11:48;5.78;82.55
65378;SHT31;51982;51.042;13.806;2023-01-24T06:14:13;5.87;82.46
65378;SHT31;51982;51.042;13.806;2023-01-24T06:16:38;5.83;82.36
65378;SHT31;51982;51.042;13.806;2023-01-24T06:19:04;5.77;82.33
65378;SHT31;51982;51.042;13.806;2023-01-24T06:22:04;5.75;82.13
65378;SHT31;51982;51.042;13.806;2023-01-24T06:24:34;5.81;82.23
65378;SHT31;51982;51.042;13.806;2023-01-24T06:26:59;5.75;82.34
65378;SHT31;51982;51.042;13.806;2023-01-24T06:29:25;5.83;82.45
65378;SHT31;51982;51.042;13.806;2023-01-24T06:35:00;5.77;82.18
65378;SHT31;51982;51.042;13.806;2023-01-24T06:37:48;5.78;82.36
65378;SHT31;51982;51.042;13.806;2023-01-24T06:40:16;5.77;82.41
65378;SHT31;51982;51.042;13.806;2023-01-24T06:42:42;5.84;82.38
65378;SHT31;51982;51.042;13.806;2023-01-24T06:45:08;5.83;82.37
65378;SHT31;51982;51.042;13.806;2023-01-24T06:47:33;5.74;82.42
65378;SHT31;51982;51.042;13.806;2023-01-24T06:49:59;5.77;82.47
65378;SHT31;51982;51.042;13.806;2023-01-24T06:52:24;5.84;82.40
65378;SHT31;51982;51.042;13.806;2023-01-24T06:54:49;5.86;82.40
65378;SHT31;51982;51.042;13.806;2023-01-24T06:57:15;5.91;82.41
65378;SHT31;51982;51.042;13.806;2023-01-24T06:59:40;5.93;82.16
65378;SHT31;51982;51.042;13.806;2023-01-24T07:02:06;5.89;82.16
65378;SHT31;51982;51.042;13.806;2023-01-24T07:04:33;5.84;82.45
65378;SHT31;51982;51.042;13.806;2023-01-24T07:07:00;5.95;82.31
65378;SHT31;51982;51.042;13.806;2023-01-24T07:09:25;5.95;82.07
65378;SHT31;51982;51.042;13.806;2023-01-24T07:11:50;5.84;82.16
65378;SHT31;51982;51.042;13.806;2023-01-24T07:14:20;5.83;82.18
65378;SHT31;51982;51.042;13.806;2023-01-24T07:16:45;5.81;82.23
65378;SHT31;51982;51.042;13.806;2023-01-24T07:19:14;5.83;82.29
65378;SHT31;51982;51.042;13.806;2023-01-24T07:21:40;5.90;82.37
65378;SHT31;51982;51.042;13.806;2023-01-24T07:24:12;5.93;81.91
65378;SHT31;51982;51.042;13.806;2023-01-24T07:26:38;5.90;82.13
65378;SHT31;51982;51.042;13.806;2023-01-24T07:29:04;5.94;82.12
65378;SHT31;51982;51.042;13.806;2023-01-24T07:31:29;6.01;82.00
65378;SHT31;51982;51.042;13.806;2023-01-24T07:33:54;5.97;81.96
65378;SHT31;51982;51.042;13.806;2023-01-24T07:36:19;5.94;81.93
65378;SHT31;51982;51.042;13.806;2023-01-24T07:38:44;6.10;82.02
65378;SHT31;51982;51.042;13.806;2023-01-24T07:41:10;6.00;81.53
65378;SHT31;51982;51.042;13.806;2023-01-24T07:43:36;6.04;81.75
65378;SHT31;51982;51.042;13.806;2023-01-24T07:46:04;6.14;81.59
65378;SHT31;51982;51.042;13.806;2023-01-24T07:48:32;6.11;81.52
65378;SHT31;51982;51.042;13.806;2023-01-24T07:50:58;6.12;81.49
65378;SHT31;51982;51.042;13.806;2023-01-24T07:53:26;6.18;81.43
65378;SHT31;51982;51.042;13.806;2023-01-24T07:55:52;6.18;81.25
65378;SHT31;51982;51.042;13.806;2023-01-24T07:58:17;6.11;81.49
65378;SHT31;51982;51.042;13.806;2023-01-24T08:00:42;6.05;81.61
65378;SHT31;51982;51.042;13.806;2023-01-24T08:03:09;6.14;81.53
65378;SHT31;51982;51.042;13.806;2023-01-24T08:05:36;6.10;81.50
65378;SHT31;51982;51.042;13.806;2023-01-24T08:08:02;6.04;81.64
65378;SHT31;51982;51.042;13.806;2023-01-24T08:10:27;6.05;81.81
65378;SHT31;51982;51.042;13.806;2023-01-24T08:12:54;6.02;81.87
65378;SHT31;51982;51.042;13.806;2023-01-24T08:15:19;5.95;81.64
65378;SHT31;51982;51.042;13.806;2023-01-24T08:17:44;5.97;81.76
65378;SHT31;51982;51.042;13.806;2023-01-24T08:20:10;6.04;81.86
65378;SHT31;51982;51.042;13.806;2023-01-24T08:22:38;6.11;81.67
65378;SHT31;51982;51.042;13.806;2023-01-24T08:25:03;6.15;81.59
65378;SHT31;51982;51.042;13.806;2023-01-24T08:27:29;6.14;81.58
65378;SHT31;51982;51.042;13.806;2023-01-24T08:29:54;6.17;82.71
65378;SHT31;51982;51.042;13.806;2023-01-24T08:32:19;6.10;82.24
65378;SHT31;51982;51.042;13.806;2023-01-24T08:34:44;6.04;82.27
65378;SHT31;51982;51.042;13.806;2023-01-24T08:37:09;6.10;82.20
65378;SHT31;51982;51.042;13.806;2023-01-24T08:39:35;6.11;82.08
65378;SHT31;51982;51.042;13.806;2023-01-24T08:42:00;6.14;82.16
65378;SHT31;51982;51.042;13.806;2023-01-24T08:44:25;6.02;82.13
65378;SHT31;51982;51.042;13.806;2023-01-24T08:46:50;6.07;82.19
65378;SHT31;51982;51.042;13.806;2023-01-24T08:49:15;6.04;82.30
65378;SHT31;51982;51.042;13.806;2023-01-24T08:51:43;6.08;82.31
65378;SHT31;51982;51.042;13.806;2023-01-24T08:54:10;6.07;82.26
65378;SHT31;51982;51.042;13.806;2023-01-24T08:56:35;6.00;82.51
65378;SHT31;51982;51.042;13.806;2023-01-24T08:59:00;5.97;82.32
65378;SHT31;51982;51.042;13.806;2023-01-24T09:01:25;6.00;82.51
65378;SHT31;51982;51.042;13.806;2023-01-24T09:03:51;6.04;82.47
65378;SHT31;51982;51.042;13.806;2023-01-24T09:06:20;6.12;82.25
65378;SHT31;51982;51.042;13.806;2023-01-24T09:08:45;6.21;82.25
65378;SHT31;51982;51.042;13.806;2023-01-24T09:11:11;6.38;82.02
65378;SHT31;51982;51.042;13.806;2023-01-24T09:13:36;6.41;81.60
65378;SHT31;51982;51.042;13.806;2023-01-24T09:16:01;6.24;81.73
65378;SHT31;51982;51.042;13.806;2023-01-24T09:18:26;6.15;81.92
65378;SHT31;51982;51.042;13.806;2023-01-24T09:20:51;6.11;82.15
65378;SHT31;51982;51.042;13.806;2023-01-24T09:23:17;6.20;82.19
65378;SHT31;51982;51.042;13.806;2023-01-24T09:25:49;6.12;81.99
65378;SHT31;51982;51.042;13.806;2023-01-24T09:28:14;6.32;82.07
65378;SHT31;51982;51.042;13.806;2023-01-24T09:30:39;6.41;81.71
65378;SHT31;51982;51.042;13.806;2023-01-24T09:33:05;6.36;81.47
65378;SHT31;51982;51.042;13.806;2023-01-24T09:35:30;6.35;81.50
65378;SHT31;51982;51.042;13.806;2023-01-24T09:37:55;6.39;81.81
65378;SHT31;51982;51.042;13.806;2023-01-24T09:40:25;6.34;81.56
65378;SHT31;51982;51.042;13.806;2023-01-24T09:43:00;6.25;81.86
65378;SHT31;51982;51.042;13.806;2023-01-24T09:45:32;6.31;81.97
65378;SHT31;51982;51.042;13.806;2023-01-24T09:48:05;6.32;81.80
65378;SHT31;51982;51.042;13.806;2023-01-24T09:50:41;6.36;81.58
65378;SHT31;51982;51.042;13.806;2023-01-24T09:53:16;6.48;81.45
65378;SHT31;51982;51.042;13.806;2023-01-24T09:55:43;6.46;81.46
65378;SHT31;51982;51.042;13.806;2023-01-24T09:58:33;6.49;81.59
65378;SHT31;51982;51.042;13.806;2023-01-24T10:01:09;6.43;81.48
65378;SHT31;51982;51.042;13.806;2023-01-24T10:03:36;6.42;81.66
65378;SHT31;51982;51.042;13.806;2023-01-24T10:06:25;6.45;81.44
65378;SHT31;51982;51.042;13.806;2023-01-24T10:09:13;6.46;81.20
65378;SHT31;51982;51.042;13.806;2023-01-24T10:22:32;6.57;81.28
65378;SHT31;51982;51.042;13.806;2023-01-24T10:25:11;6.62;81.19
65378;SHT31;51982;51.042;13.806;2023-01-24T10:27:49;6.43;80.94
65378;SHT31;51982;51.042;13.806;2023-01-24T10:30:41;6.38;81.10
65378;SHT31;51982;51.042;13.806;2023-01-24T10:33:16;6.55;81.29
65378;SHT31;51982;51.042;13.806;2023-01-24T10:35:53;6.62;80.90
65378;SHT31;51982;51.042;13.806;2023-01-24T10:38:20;6.48;80.56
65378;SHT31;51982;51.042;13.806;2023-01-24T10:40:51;6.45;81.03
65378;SHT31;51982;51.042;13.806;2023-01-24T10:43:17;6.43;81.00
65378;SHT31;51982;51.042;13.806;2023-01-24T10:45:52;6.50;81.01
65378;SHT31;51982;51.042;13.806;2023-01-24T10:51:15;6.49;81.15
65378;SHT31;51982;51.042;13.806;2023-01-24T10:53:41;6.50;81.08
65378;SHT31;51982;51.042;13.806;2023-01-24T10:56:07;6.50;80.94
65378;SHT31;51982;51.042;13.806;2023-01-24T10:58:58;6.55;80.76
65378;SHT31;51982;51.042;13.806;2023-01-24T11:03:56;6.52;80.99
65378;SHT31;51982;51.042;13.806;2023-01-24T11:06:33;6.69;80.86
65378;SHT31;51982;51.042;13.806;2023-01-24T11:09:10;6.68;80.74
65378;SHT31;51982;51.042;13.806;2023-01-24T11:11:43;6.69;80.68
65378;SHT31;51982;51.042;13.806;2023-01-24T11:14:14;6.63;80.62
65378;SHT31;51982;51.042;13.806;2023-01-24T11:16:45;6.45;81.00
65378;SHT31;51982;51.042;13.806;2023-01-24T11:19:32;6.45;81.19
65378;SHT31;51982;51.042;13.806;2023-01-24T11:22:00;6.50;81.31
65378;SHT31;51982;51.042;13.806;2023-01-24T11:24:27;6.43;81.37
65378;SHT31;51982;51.042;13.806;2023-01-24T11:27:04;6.46;81.39
65378;SHT31;51982;51.042;13.806;2023-01-24T11:29:31;6.57;81.34
65378;SHT31;51982;51.042;13.806;2023-01-24T11:32:15;6.63;81.11
65378;SHT31;51982;51.042;13.806;2023-01-24T11:34:57;6.76;81.02
65378;SHT31;51982;51.042;13.806;2023-01-24T11:38:03;6.72;80.66
65378;SHT31;51982;51.042;13.806;2023-01-24T11:40:45;6.77;80.58
65378;SHT31;51982;51.042;13.806;2023-01-24T11:45:57;6.68;80.79
65378;SHT31;51982;51.042;13.806;2023-01-24T11:48:45;6.65;80.80
65378;SHT31;51982;51.042;13.806;2023-01-24T11:57:22;6.66;80.97
65378;SHT31;51982;51.042;13.806;2023-01-24T12:02:43;6.65;80.83
65378;SHT31;51982;51.042;13.806;2023-01-24T12:05:27;6.71;80.94
65378;SHT31;51982;51.042;13.806;2023-01-24T12:16:37;6.75;80.46
65378;SHT31;51982;51.042;13.806;2023-01-24T12:21:58;6.89;80.34
65378;SHT31;51982;51.042;13.806;2023-01-24T12:24:27;6.89;80.35
65378;SHT31;51982;51.042;13.806;2023-01-24T12:26:59;6.87;80.19
65378;SHT31;51982;51.042;13.806;2023-01-24T12:29:36;6.66;80.93
65378;SHT31;51982;51.042;13.806;2023-01-24T12:32:14;6.75;80.62
65378;SHT31;51982;51.042;13.806;2023-01-24T12:35:08;6.86;80.63
65378;SHT31;51982;51.042;13.806;2023-01-24T12:37:46;6.92;80.39
65378;SHT31;51982;51.042;13.806;2023-01-24T12:45:18;6.93;80.09
65378;SHT31;51982;51.042;13.806;2023-01-24T12:47:50;6.83;79.85
65378;SHT31;51982;51.042;13.806;2023-01-24T12:50:29;6.86;80.09
65378;SHT31;51982;51.042;13.806;2023-01-24T12:53:12;6.83;79.70
65378;SHT31;51982;51.042;13.806;2023-01-24T12:55:45;6.68;79.86
65378;SHT31;51982;51.042;13.806;2023-01-24T12:58:23;6.76;80.34
65378;SHT31;51982;51.042;13.806;2023-01-24T13:04:26;6.96;79.81
65378;SHT31;51982;51.042;13.806;2023-01-24T13:07:16;6.75;79.52
65378;SHT31;51982;51.042;13.806;2023-01-24T13:12:29;6.68;79.82
65378;SHT31;51982;51.042;13.806;2023-01-24T13:20:39;6.50;79.94
65378;SHT31;51982;51.042;13.806;2023-01-24T13:26:26;6.53;79.55
65378;SHT31;51982;51.042;13.806;2023-01-24T13:29:41;6.62;79.62
65378;SHT31;51982;51.042;13.806;2023-01-24T13:32:08;6.56;79.38
65378;SHT31;51982;51.042;13.806;2023-01-24T13:34:40;6.65;79.64
65378;SHT31;51982;51.042;13.806;2023-01-24T13:37:06;6.63;79.57
65378;SHT31;51982;51.042;13.806;2023-01-24T13:39:39;6.72;79.49
65378;SHT31;51982;51.042;13.806;2023-01-24T13:42:20;6.79;79.50
65378;SHT31;51982;51.042;13.806;2023-01-24T13:44:47;6.89;79.49
65378;SHT31;51982;51.042;13.806;2023-01-24T14:03:16;6.97;79.61
65378;SHT31;51982;51.042;13.806;2023-01-24T14:05:53;7.00;79.64
65378;SHT31;51982;51.042;13.806;2023-01-24T14:10:47;6.92;79.85
65378;SHT31;51982;51.042;13.806;2023-01-24T14:16:12;6.87;80.13
65378;SHT31;51982;51.042;13.806;2023-01-24T14:18:55;6.79;80.11
65378;SHT31;51982;51.042;13.806;2023-01-24T14:21:25;6.68;80.64
65378;SHT31;51982;51.042;13.806;2023-01-24T14:23:55;6.62;80.83
65378;SHT31;51982;51.042;13.806;2023-01-24T14:26:22;6.56;81.11
65378;SHT31;51982;51.042;13.806;2023-01-24T14:28:58;6.48;81.43
65378;SHT31;51982;51.042;13.806;2023-01-24T14:31:40;6.45;81.48
65378;SHT31;51982;51.042;13.806;2023-01-24T14:34:26;6.49;81.61
65378;SHT31;51982;51.042;13.806;2023-01-24T14:37:11;6.46;81.77
65378;SHT31;51982;51.042;13.806;2023-01-24T14:39:36;6.52;81.84
65378;SHT31;51982;51.042;13.806;2023-01-24T14:42:03;6.55;81.87
65378;SHT31;51982;51.042;13.806;2023-01-24T14:44:35;6.53;81.85
65378;SHT31;51982;51.042;13.806;2023-01-24T14:47:04;6.49;81.96
65378;SHT31;51982;51.042;13.806;2023-01-24T14:49:32;6.39;82.08
65378;SHT31;51982;51.042;13.806;2023-01-24T14:52:28;6.41;82.00
65378;SHT31;51982;51.042;13.806;2023-01-24T14:54:57;6.50;82.02
65378;SHT31;51982;51.042;13.806;2023-01-24T14:57:25;6.56;81.94
65378;SHT31;51982;51.042;13.806;2023-01-24T15:00:01;6.59;81.66
65378;SHT31;51982;51.042;13.806;2023-01-24T15:02:29;6.63;81.66
65378;SHT31;51982;51.042;13.806;2023-01-24T15:05:01;6.53;81.79
65378;SHT31;51982;51.042;13.806;2023-01-24T15:07:26;6.52;82.02
65378;SHT31;51982;51.042;13.806;2023-01-24T15:10:12;6.57;82.08
65378;SHT31;51982;51.042;13.806;2023-01-24T15:12:57;6.50;81.97
65378;SHT31;51982;51.042;13.806;2023-01-24T15:15:24;6.62;81.87
65378;SHT31;51982;51.042;13.806;2023-01-24T15:17:49;6.63;81.85
65378;SHT31;51982;51.042;13.806;2023-01-24T15:20:18;6.69;81.94
65378;SHT31;51982;51.042;13.806;2023-01-24T15:22:48;6.66;81.68
65378;SHT31;51982;51.042;13.806;2023-01-24T15:25:25;6.71;81.48
65378;SHT31;51982;51.042;13.806;2023-01-24T15:27:56;6.57;81.92
65378;SHT31;51982;51.042;13.806;2023-01-24T15:30:22;6.45;81.87
65378;SHT31;51982;51.042;13.806;2023-01-24T15:32:50;6.48;82.22
65378;SHT31;51982;51.042;13.806;2023-01-24T15:35:39;6.45;81.83
65378;SHT31;51982;51.042;13.806;2023-01-24T15:43:41;6.57;81.81
65378;SHT31;51982;51.042;13.806;2023-01-24T15:49:32;6.62;81.78
65378;SHT31;51982;51.042;13.806;2023-01-24T15:54:35;6.69;81.64
65378;SHT31;51982;51.042;13.806;2023-01-24T15:57:03;6.61;81.68
65378;SHT31;51982;51.042;13.806;2023-01-24T15:59:29;6.61;81.92
65378;SHT31;51982;51.042;13.806;2023-01-24T16:01:55;6.56;81.94
65378;SHT31;51982;51.042;13.806;2023-01-24T16:04:21;6.59;82.13
65378;SHT31;51982;51.042;13.806;2023-01-24T16:06:48;6.55;82.21
65378;SHT31;51982;51.042;13.806;2023-01-24T16:09:13;6.48;82.54
65378;SHT31;51982;51.042;13.806;2023-01-24T16:11:41;6.41;82.66
65378;SHT31;51982;51.042;13.806;2023-01-24T16:14:12;6.52;82.73
65378;SHT31;51982;51.042;13.806;2023-01-24T16:16:38;6.55;82.38
65378;SHT31;51982;51.042;13.806;2023-01-24T16:19:13;6.39;82.45
65378;SHT31;51982;51.042;13.806;2023-01-24T16:21:39;6.48;82.61
65378;SHT31;51982;51.042;13.806;2023-01-24T16:24:04;6.49;82.51
65378;SHT31;51982;51.042;13.806;2023-01-24T16:26:30;6.49;82.68
65378;SHT31;51982;51.042;13.806;2023-01-24T16:28:55;6.49;82.47
65378;SHT31;51982;51.042;13.806;2023-01-24T16:31:20;6.41;82.23
65378;SHT31;51982;51.042;13.806;2023-01-24T16:33:45;6.53;82.38
65378;SHT31;51982;51.042;13.806;2023-01-24T16:36:12;6.57;81.87
65378;SHT31;51982;51.042;13.806;2023-01-24T16:38:42;6.66;81.70
65378;SHT31;51982;51.042;13.806;2023-01-24T16:41:08;6.63;81.63
65378;SHT31;51982;51.042;13.806;2023-01-24T16:43:34;6.59;81.79
65378;SHT31;51982;51.042;13.806;2023-01-24T16:45:59;6.56;82.13
65378;SHT31;51982;51.042;13.806;2023-01-24T16:48:25;6.59;81.93
65378;SHT31;51982;51.042;13.806;2023-01-24T16:50:50;6.62;81.63
65378;SHT31;51982;51.042;13.806;2023-01-24T16:53:15;6.66;81.51
65378;SHT31;51982;51.042;13.806;2023-01-24T16:55:41;6.65;81.65
65378;SHT31;51982;51.042;13.806;2023-01-24T16:58:07;6.59;81.78
65378;SHT31;51982;51.042;13.806;2023-01-24T17:00:33;6.62;81.23
65378;SHT31;51982;51.042;13.806;2023-01-24T17:02:59;6.65;81.06
65378;SHT31;51982;51.042;13.806;2023-01-24T17:05:25;6.68;80.93
65378;SHT31;51982;51.042;13.806;2023-01-24T17:07:50;6.68;80.93
65378;SHT31;51982;51.042;13.806;2023-01-24T17:10:16;6.55;80.60
65378;SHT31;51982;51.042;13.806;2023-01-24T17:12:41;6.55;80.92
65378;SHT31;51982;51.042;13.806;2023-01-24T17:15:08;6.53;80.85
65378;SHT31;51982;51.042;13.806;2023-01-24T17:17:34;6.55;80.77
65378;SHT31;51982;51.042;13.806;2023-01-24T17:19:59;6.59;80.80
65378;SHT31;51982;51.042;13.806;2023-01-24T17:22:27;6.62;80.63
65378;SHT31;51982;51.042;13.806;2023-01-24T17:24:55;6.53;80.68